Time;durP1;ratioP1;P1;durP2;ratioP2;P2;SDS_P1;SDS_P2;PMS_P1;PMS_P2;Temp;Humidity;BMP_temperature;BMP_pressure;BME280_temperature;BME280_humidity;BME280_pressure;Samples;Min_cycle;Max_cycle;Signal;HPM_P1;HPM_P2
2022/01/13 00:02:29;;;;;;;61.05;15.60;;;;;;;3.36;89.62;104217.72;5045255;28;20174;-67
2022/01/13 00:04:54;;;;;;;92.95;18.90;;;;;;;3.31;89.87;104227.03;5043618;28;20049;-66
2022/01/13 00:07:19;;;;;;;84.30;19.15;;;;;;;3.33;89.95;104225.38;5045045;28;20029;-66
2022/01/13 00:09:45;;;;;;;103.00;19.13;;;;;;;3.37;89.84;104232.56;5024848;28;20025;-66
2022/01/13 00:12:12;;;;;;;110.53;19.83;;;;;;;3.33;89.90;104218.47;5047250;28;20083;-64
2022/01/13 00:15:07;;;;;;;180.80;23.90;;;;;;;3.34;89.79;104214.16;5045008;28;20025;-66
2022/01/13 00:17:45;;;;;;;98.22;19.45;;;;;;;3.28;90.16;104223.44;5044608;28;20086;-66
2022/01/13 00:20:32;;;;;;;96.20;17.80;;;;;;;3.27;90.24;104219.06;5027183;28;20032;-68
2022/01/13 00:25:40;;;;;;;131.43;20.35;;;;;;;3.29;90.39;104222.63;5043670;28;20396;-67
2022/01/13 00:28:15;;;;;;;99.20;19.05;;;;;;;3.35;90.16;104216.84;5044069;28;20025;-66
2022/01/13 00:30:40;;;;;;;60.00;16.17;;;;;;;3.37;90.27;104223.03;5044682;28;20017;-68
2022/01/13 00:33:07;;;;;;;184.98;20.35;;;;;;;3.31;90.25;104220.09;5025327;28;20029;-68
2022/01/13 00:35:33;;;;;;;112.75;18.55;;;;;;;3.30;90.11;104218.31;5047657;28;20057;-66
2022/01/13 00:37:58;;;;;;;80.47;16.55;;;;;;;3.32;90.31;104213.19;5046405;28;20088;-67
2022/01/13 00:40:23;;;;;;;135.45;18.77;;;;;;;3.39;89.92;104217.88;5047271;28;20033;-67
2022/01/13 00:42:49;;;;;;;64.25;16.65;;;;;;;3.37;89.95;104215.19;5046930;28;20025;-67
2022/01/13 00:45:15;;;;;;;91.75;20.25;;;;;;;3.45;89.90;104209.47;5047901;28;20139;-66
2022/01/13 00:47:41;;;;;;;75.85;17.23;;;;;;;3.36;90.14;104207.31;5047506;28;20029;-66
2022/01/13 00:50:07;;;;;;;84.00;18.17;;;;;;;3.39;89.92;104212.69;5047768;28;20029;-65
2022/01/13 00:52:33;;;;;;;89.95;19.05;;;;;;;3.45;90.13;104218.22;5046872;28;20037;-65
2022/01/13 00:55:01;;;;;;;114.68;22.58;;;;;;;3.39;90.22;104217.88;5047127;28;20025;-67
2022/01/13 00:57:28;;;;;;;133.00;21.50;;;;;;;3.38;90.20;104221.31;5046639;28;20040;-67
2022/01/13 00:59:53;;;;;;;117.45;20.63;;;;;;;3.42;90.24;104233.69;5047639;28;20383;-68
2022/01/13 01:02:19;;;;;;;101.20;19.88;;;;;;;3.46;90.10;104225.19;5046606;28;20033;-67
2022/01/13 01:04:44;;;;;;;84.35;19.88;;;;;;;3.44;90.12;104226.84;5047992;28;20049;-67
2022/01/13 01:07:09;;;;;;;120.00;22.83;;;;;;;3.47;90.12;104228.72;5046613;28;20095;-67
2022/01/13 01:09:47;;;;;;;118.60;25.08;;;;;;;3.56;90.12;104241.31;5047585;28;20063;-67
2022/01/13 01:12:13;;;;;;;97.85;23.58;;;;;;;3.59;89.86;104237.16;5046512;28;20033;-66
2022/01/13 01:14:45;;;;;;;80.75;19.27;;;;;;;3.61;89.82;104229.41;5047789;28;20037;-66
2022/01/13 01:17:11;;;;;;;91.00;23.25;;;;;;;3.59;90.01;104231.94;5047254;28;20055;-67
2022/01/13 01:19:37;;;;;;;147.73;27.45;;;;;;;3.62;89.92;104232.09;5047285;28;20104;-68
2022/01/13 01:27:29;;;;;;;112.18;23.65;;;;;;;3.66;89.81;104233.13;5046747;28;20043;-66
2022/01/13 01:30:04;;;;;;;116.97;26.98;;;;;;;3.70;89.86;104227.25;5050596;28;20514;-68
2022/01/13 01:32:31;;;;;;;109.22;26.60;;;;;;;3.70;90.06;104239.41;5046378;28;20075;-65
2022/01/13 01:35:01;;;;;;;109.80;28.08;;;;;;;3.73;89.84;104235.22;5055044;28;20085;-66
2022/01/13 01:37:28;;;;;;;111.25;25.65;;;;;;;3.67;90.05;104241.03;5049564;28;20036;-66
2022/01/13 01:39:55;;;;;;;116.47;24.50;;;;;;;3.71;90.12;104238.59;5007123;28;20034;-66
2022/01/13 01:42:22;;;;;;;139.52;26.70;;;;;;;3.74;89.98;104234.44;5026323;28;20039;-66
2022/01/13 01:44:50;;;;;;;169.13;31.35;;;;;;;3.72;90.15;104236.06;5043397;28;20024;-67
2022/01/13 01:47:17;;;;;;;104.15;24.58;;;;;;;3.78;89.99;104238.97;5028817;28;20016;-66
2022/01/13 01:49:47;;;;;;;132.93;26.13;;;;;;;3.77;89.97;104231.94;5046387;28;20021;-66
2022/01/13 01:52:12;;;;;;;;;;;;;;;3.69;89.86;104225.47;5029125;28;20044;-66
2022/01/13 01:54:38;;;;;;;129.43;25.92;;;;;;;3.65;90.01;104228.75;5045395;28;20302;-67
2022/01/13 01:57:05;;;;;;;167.23;22.95;;;;;;;3.71;90.38;104234.28;5045864;28;20804;-65
2022/01/13 01:59:33;;;;;;;119.32;22.45;;;;;;;3.70;90.25;104227.25;5057761;28;20550;-67
2022/01/13 02:01:58;;;;;;;118.45;24.70;;;;;;;3.73;90.13;104226.53;5051084;28;20107;-66
2022/01/13 02:04:26;;;;;;;91.22;19.80;;;;;;;3.72;90.30;104224.72;5027899;28;20105;-67
2022/01/13 02:06:54;;;;;;;117.15;22.55;;;;;;;3.74;90.14;104241.34;5025341;28;20041;-66
2022/01/13 02:09:20;;;;;;;108.90;19.42;;;;;;;3.79;90.01;104232.94;5025899;28;20419;-67
2022/01/13 02:11:51;;;;;;;140.40;21.00;;;;;;;3.81;89.86;104239.94;5025219;28;20039;-67
2022/01/13 02:14:34;;;;;;;103.82;21.02;;;;;;;3.82;89.61;104220.88;5026353;28;20088;-66
2022/01/13 02:17:10;;;;;;;119.80;21.38;;;;;;;3.73;89.82;104222.19;5025800;28;20037;-66
2022/01/13 02:19:38;;;;;;;93.05;18.05;;;;;;;3.77;89.75;104212.81;5026100;28;20033;-68
2022/01/13 02:22:03;;;;;;;114.03;19.77;;;;;;;3.79;89.85;104219.88;5024201;28;20030;-67
2022/01/13 02:24:29;;;;;;;169.77;23.77;;;;;;;3.81;89.98;104208.63;5025416;28;20014;-67
2022/01/13 02:26:55;;;;;;;170.95;25.98;;;;;;;3.79;89.49;104217.28;5025585;28;20034;-67
2022/01/13 02:29:20;;;;;;;98.25;19.08;;;;;;;3.82;89.57;104213.03;5026272;28;20052;-67
2022/01/13 02:31:45;;;;;;;125.43;21.80;;;;;;;3.78;89.75;104205.06;5023112;28;20029;-69
2022/01/13 02:34:11;;;;;;;108.07;19.88;;;;;;;3.77;89.59;104200.66;5023042;28;20079;-66
2022/01/13 02:36:37;;;;;;;105.05;21.48;;;;;;;3.78;89.86;104207.66;5025286;28;20057;-68
2022/01/13 02:39:04;;;;;;;135.90;24.45;;;;;;;3.76;89.90;104192.75;5024086;28;20079;-67
2022/01/13 02:41:30;;;;;;;108.38;21.52;;;;;;;3.79;89.89;104195.50;5025224;28;20025;-62
2022/01/13 02:43:58;;;;;;;121.68;22.88;;;;;;;3.79;89.88;104196.41;5020768;28;20506;-67
2022/01/13 02:48:56;;;;;;;152.40;28.55;;;;;;;3.70;90.24;104184.63;5024037;28;20487;-68
2022/01/13 02:51:22;;;;;;;130.27;23.70;;;;;;;3.72;90.18;104183.88;5025538;28;20119;-67
2022/01/13 02:53:47;;;;;;;154.50;23.35;;;;;;;3.72;90.26;104178.69;5023492;28;20045;-66
2022/01/13 02:56:12;;;;;;;149.98;24.08;;;;;;;3.82;90.11;104180.00;5025116;28;20116;-66
2022/01/13 02:58:38;;;;;;;177.32;26.05;;;;;;;3.79;89.88;104183.38;5024435;28;20480;-67
2022/01/13 03:01:05;;;;;;;131.85;23.55;;;;;;;3.78;90.15;104186.81;5025378;28;20056;-67
2022/01/13 03:03:31;;;;;;;125.70;24.50;;;;;;;3.84;89.84;104182.69;5024508;28;20022;-65
2022/01/13 03:05:57;;;;;;;126.05;21.88;;;;;;;3.78;89.98;104178.97;5037758;28;20141;-67
2022/01/13 03:08:22;;;;;;;108.80;22.73;;;;;;;3.80;90.14;104181.66;5048866;28;20108;-65
2022/01/13 03:10:48;;;;;;;150.27;26.33;;;;;;;3.79;89.90;104178.16;5045440;28;20126;-68
2022/01/13 03:13:13;;;;;;;145.25;23.15;;;;;;;3.78;90.07;104176.38;5064394;28;20048;-67
2022/01/13 03:15:39;;;;;;;131.80;22.85;;;;;;;3.85;89.99;104176.66;5065304;28;20036;-67
2022/01/13 03:18:05;;;;;;;113.88;22.98;;;;;;;3.87;89.82;104180.22;5063510;28;20131;-66
2022/01/13 03:20:30;;;;;;;111.68;19.75;;;;;;;3.79;89.98;104172.94;5025656;28;20575;-66
2022/01/13 03:22:56;;;;;;;190.95;24.80;;;;;;;3.82;90.24;104177.41;5024370;28;20039;-66
2022/01/13 03:25:23;;;;;;;179.45;30.08;;;;;;;3.80;90.25;104171.22;5041871;28;20025;-66
2022/01/13 03:28:03;;;;;;;141.13;24.48;;;;;;;3.81;90.21;104167.78;5044010;28;20021;-67
2022/01/13 03:30:28;;;;;;;123.47;26.13;;;;;;;3.83;90.11;104163.56;5062172;28;20035;-65
2022/01/13 03:32:53;;;;;;;162.05;23.85;;;;;;;3.83;90.06;104162.66;5064955;28;20029;-67
2022/01/13 03:35:19;;;;;;;110.90;22.70;;;;;;;3.88;89.79;104161.13;5049254;28;20033;-67
2022/01/13 03:37:44;;;;;;;109.70;19.95;;;;;;;3.90;89.78;104154.28;5044719;28;20025;-62
2022/01/13 03:40:10;;;;;;;105.68;16.50;;;;;;;3.85;89.54;104161.03;5044128;28;20021;-67
2022/01/13 03:42:35;;;;;;;82.35;16.73;;;;;;;3.89;89.39;104165.56;5044694;28;20036;-65
2022/01/13 03:45:01;;;;;;;60.92;14.45;;;;;;;3.86;89.55;104162.78;5045786;28;20044;-66
2022/01/13 03:47:26;;;;;;;83.50;16.13;;;;;;;3.85;89.59;104161.03;5045130;28;20583;-66
2022/01/13 03:49:51;;;;;;;61.13;16.17;;;;;;;3.86;89.45;104149.75;5043018;28;20453;-66
2022/01/13 03:52:23;;;;;;;74.13;16.88;;;;;;;3.85;89.58;104156.66;5045068;28;20503;-67
2022/01/13 03:55:29;;;;;;;80.88;17.70;;;;;;;3.75;90.06;104150.13;5041732;28;20024;-66
2022/01/13 03:58:31;;;;;;;84.55;17.33;;;;;;;3.86;89.90;104157.56;5044752;28;20411;-67
2022/01/13 04:01:34;;;;;;;114.82;19.90;;;;;;;3.85;89.85;104161.91;5043390;28;20025;-67
2022/01/13 04:03:59;;;;;;;128.80;19.75;;;;;;;3.77;90.08;104158.03;5043717;28;20029;-67
2022/01/13 04:06:33;;;;;;;88.93;17.52;;;;;;;3.77;90.16;104158.03;5043565;28;20037;-67
2022/01/13 04:08:59;;;;;;;142.88;19.95;;;;;;;3.81;90.22;104161.66;5045755;28;20044;-68
2022/01/13 04:11:29;;;;;;;85.68;18.67;;;;;;;3.79;90.32;104153.75;5046206;28;20025;-66
2022/01/13 04:16:24;;;;;;;77.90;17.48;;;;;;;3.90;90.44;104167.34;5048961;28;20162;-67
2022/01/13 04:18:50;;;;;;;82.03;17.83;;;;;;;3.92;90.15;104160.47;5048886;28;20021;-67
2022/01/13 04:21:18;;;;;;;91.00;19.27;;;;;;;3.90;90.04;104159.50;5048693;28;20486;-67
2022/01/13 04:23:44;;;;;;;107.65;20.38;;;;;;;3.88;90.41;104155.91;5047853;28;20098;-67
2022/01/13 04:26:10;;;;;;;222.43;24.73;;;;;;;3.87;90.47;104160.25;5047948;28;20420;-67
2022/01/13 04:28:36;;;;;;;183.75;29.70;;;;;;;3.86;90.49;104157.56;5047535;28;20024;-66
2022/01/13 04:31:02;;;;;;;126.15;24.95;;;;;;;3.91;90.49;104156.06;5047757;28;20033;-66
2022/01/13 04:33:32;;;;;;;159.60;30.70;;;;;;;3.91;90.54;104156.06;5062785;28;20013;-67
2022/01/13 04:35:59;;;;;;;162.02;28.90;;;;;;;3.93;90.58;104157.03;5067700;28;20498;-67
2022/01/13 04:38:24;;;;;;;119.70;26.13;;;;;;;3.90;90.38;104157.81;5054020;28;20021;-66
2022/01/13 04:40:55;;;;;;;111.07;23.20;;;;;;;3.98;90.20;104162.50;5047221;28;20056;-66
2022/01/13 04:43:22;;;;;;;112.65;22.55;;;;;;;3.99;90.01;104165.19;5047771;28;20304;-67
2022/01/13 04:45:48;;;;;;;90.07;18.30;;;;;;;3.96;90.07;104169.34;5047982;28;20032;-67
2022/01/13 04:48:13;;;;;;;116.32;21.88;;;;;;;3.92;90.12;104165.72;5047250;28;20025;-67
2022/01/13 04:50:38;;;;;;;81.30;17.90;;;;;;;3.98;89.89;104160.78;5048310;28;20055;-67
2022/01/13 04:53:04;;;;;;;112.90;20.15;;;;;;;3.99;90.08;104154.72;5046296;28;20154;-66
2022/01/13 04:55:32;;;;;;;106.25;21.90;;;;;;;3.97;90.09;104155.50;5047942;28;20033;-70
2022/01/13 04:57:59;;;;;;;79.65;20.60;;;;;;;3.93;90.23;104144.00;5051440;28;20483;-67
2022/01/13 05:00:25;;;;;;;99.47;20.77;;;;;;;3.99;90.18;104140.78;5050870;28;20399;-68
2022/01/13 05:02:50;;;;;;;105.97;22.92;;;;;;;3.94;90.15;104151.00;5065970;28;20024;-68
2022/01/13 05:05:16;;;;;;;161.43;25.35;;;;;;;3.90;90.37;104147.38;5066153;28;20033;-65
2022/01/13 05:07:41;;;;;;;96.10;22.48;;;;;;;3.86;90.33;104152.38;5060764;28;20116;-66
2022/01/13 05:10:08;;;;;;;152.30;24.38;;;;;;;3.79;90.56;104148.53;5046942;28;20057;-68
2022/01/13 05:12:41;;;;;;;199.93;29.42;;;;;;;3.81;90.57;104159.06;5046070;28;20041;-68
2022/01/13 05:15:09;;;;;;;127.93;25.60;;;;;;;3.86;90.74;104162.78;5047375;28;20617;-68
2022/01/13 05:18:01;;;;;;;133.13;27.70;;;;;;;3.80;90.68;104166.00;5046296;28;20655;-66
2022/01/13 05:20:24;;;;;;;116.85;27.17;;;;;;;3.92;90.46;104165.72;5046932;28;20029;-67
2022/01/13 05:22:50;;;;;;;111.28;24.27;;;;;;;3.90;90.36;104170.84;5045584;28;20079;-68
2022/01/13 05:25:19;;;;;;;131.10;30.48;;;;;;;3.89;90.27;104157.72;5046471;28;20020;-67
2022/01/13 05:27:45;;;;;;;118.13;25.33;;;;;;;3.91;90.28;104164.81;5042162;28;20037;-67
2022/01/13 05:30:11;;;;;;;111.78;25.75;;;;;;;3.88;90.51;104155.91;5047347;28;20009;-68
2022/01/13 05:32:37;;;;;;;121.10;27.33;;;;;;;3.97;90.36;104161.59;5045908;28;20033;-67
2022/01/13 05:35:02;;;;;;;133.07;29.08;;;;;;;3.95;90.30;104158.03;5029178;28;20360;-67
2022/01/13 05:37:28;;;;;;;130.00;30.98;;;;;;;4.00;90.24;104156.50;5046941;28;20047;-67
2022/01/13 05:39:54;;;;;;;139.82;32.38;;;;;;;4.00;90.28;104155.63;5046513;28;20098;-68
2022/01/13 05:42:19;;;;;;;148.93;30.38;;;;;;;4.00;90.15;104146.06;5029241;28;20091;-67
2022/01/13 05:44:44;;;;;;;139.55;32.20;;;;;;;4.02;90.21;104152.28;5047138;28;20029;-68
2022/01/13 05:47:11;;;;;;;121.72;28.58;;;;;;;4.04;90.21;104139.28;5047838;28;20493;-67
2022/01/13 05:49:41;;;;;;;147.80;33.72;;;;;;;4.04;90.36;104144.50;5046590;28;20056;-66
2022/01/13 05:52:06;;;;;;;;;;;;;;;3.99;90.27;104146.00;5030106;28;20447;-66
2022/01/13 05:54:32;;;;;;;142.35;33.45;;;;;;;3.98;90.20;104152.94;5046595;28;19960;-67
2022/01/13 05:56:58;;;;;;;165.18;34.25;;;;;;;4.02;90.32;104149.66;5046410;28;20513;-67
2022/01/13 05:59:24;;;;;;;189.48;38.30;;;;;;;3.98;90.19;104159.88;5046800;28;20044;-66
2022/01/13 06:01:49;;;;;;;153.02;31.38;;;;;;;4.06;90.34;104160.25;5046682;28;20021;-67
2022/01/13 06:04:14;;;;;;;156.25;33.33;;;;;;;4.09;90.38;104161.28;5046388;28;20052;-68
2022/01/13 06:06:39;;;;;;;144.55;32.53;;;;;;;4.09;90.08;104157.78;5047049;28;20345;-67
2022/01/13 06:09:05;;;;;;;162.98;32.72;;;;;;;4.15;89.93;104158.03;5045732;28;20387;-68
2022/01/13 06:11:38;;;;;;;130.57;29.55;;;;;;;4.15;90.02;104150.22;5046616;28;20499;-67
2022/01/13 06:14:03;;;;;;;112.90;26.13;;;;;;;4.19;89.82;104156.50;5048797;28;20025;-68
2022/01/13 06:16:29;;;;;;;158.43;32.25;;;;;;;4.14;89.76;104151.03;5046899;28;20067;-66
2022/01/13 06:18:54;;;;;;;116.15;27.88;;;;;;;4.14;90.18;104153.66;5046046;28;20096;-69
2022/01/13 06:21:19;;;;;;;103.45;25.17;;;;;;;4.17;90.11;104159.03;5046025;28;20422;-68
2022/01/13 06:23:45;;;;;;;113.80;24.55;;;;;;;4.17;90.00;104151.19;5043464;28;20405;-66
2022/01/13 06:26:10;;;;;;;137.20;26.67;;;;;;;4.18;90.10;104158.19;5046707;28;20488;-67
2022/01/13 06:28:35;;;;;;;117.90;29.50;;;;;;;4.18;90.02;104160.81;5045957;28;20108;-68
2022/01/13 06:31:01;;;;;;;99.93;23.88;;;;;;;4.23;90.28;104153.19;5065900;28;20025;-68
2022/01/13 06:33:27;;;;;;;117.05;25.77;;;;;;;4.24;90.12;104155.88;5065187;28;20413;-66
2022/01/13 06:35:52;;;;;;;107.82;23.88;;;;;;;4.24;90.11;104155.88;5046026;28;20454;-68
2022/01/13 06:38:18;;;;;;;102.78;24.83;;;;;;;4.27;90.06;104161.25;5027078;28;20029;-67
2022/01/13 06:40:44;;;;;;;125.50;26.27;;;;;;;4.28;90.18;104156.91;5062324;28;20029;-67
2022/01/13 06:43:09;;;;;;;108.57;24.02;;;;;;;4.26;90.04;104154.25;5066027;28;20546;-67
2022/01/13 06:45:34;;;;;;;102.18;23.77;;;;;;;4.22;90.13;104167.97;5050243;28;20487;-68
2022/01/13 06:47:59;;;;;;;132.82;24.98;;;;;;;4.21;90.02;104160.06;5045838;28;20025;-67
2022/01/13 06:50:25;;;;;;;102.07;22.73;;;;;;;4.24;89.99;104161.09;5044038;28;20051;-68
2022/01/13 06:52:50;;;;;;;125.88;24.73;;;;;;;4.23;90.04;104158.41;5045757;28;20030;-68
2022/01/13 06:55:16;;;;;;;98.07;20.95;;;;;;;4.25;89.87;104157.66;5050082;28;20063;-66
2022/01/13 06:57:41;;;;;;;155.50;24.98;;;;;;;4.26;89.99;104159.47;5066412;28;20055;-67
2022/01/13 07:00:07;;;;;;;102.00;22.55;;;;;;;4.33;89.84;104157.13;5059964;28;20530;-67
2022/01/13 07:02:33;;;;;;;114.03;22.33;;;;;;;4.28;89.93;104163.00;5046250;28;20033;-69
2022/01/13 07:04:58;;;;;;;117.85;24.52;;;;;;;4.29;89.94;104162.22;5043562;28;20056;-66
2022/01/13 07:07:24;;;;;;;120.22;24.95;;;;;;;4.26;90.21;104158.56;5045556;28;20051;-69
2022/01/13 07:09:50;;;;;;;144.80;25.38;;;;;;;4.24;90.35;104155.88;5043855;28;20324;-68
2022/01/13 07:12:15;;;;;;;119.38;23.42;;;;;;;4.27;90.30;104157.72;5045164;28;20033;-67
2022/01/13 07:14:40;;;;;;;116.57;26.45;;;;;;;4.29;90.20;104157.00;5044532;28;20017;-67
2022/01/13 07:17:06;;;;;;;124.07;25.27;;;;;;;4.30;90.00;104156.16;5045089;28;20430;-67
2022/01/13 07:19:31;;;;;;;104.45;24.58;;;;;;;4.33;90.01;104160.63;5045045;28;20549;-64
2022/01/13 07:21:57;;;;;;;124.45;26.52;;;;;;;4.33;90.03;104160.63;5037101;28;20029;-65
2022/01/13 07:24:22;;;;;;;125.18;24.40;;;;;;;4.24;89.94;104157.59;5036899;28;20567;-67
2022/01/13 07:26:47;;;;;;;130.30;25.60;;;;;;;4.27;90.25;104163.84;5035816;28;20136;-64
2022/01/13 07:29:13;;;;;;;132.25;25.20;;;;;;;4.28;90.48;104167.38;5016442;28;20075;-64
2022/01/13 07:31:38;;;;;;;128.02;24.35;;;;;;;4.29;90.13;104164.81;5041256;28;20114;-67
2022/01/13 07:34:05;;;;;;;101.63;22.30;;;;;;;4.27;90.58;104161.25;5033731;28;20267;-71
2022/01/13 07:36:31;;;;;;;122.43;22.80;;;;;;;4.28;90.64;104157.78;5034733;28;20021;-72
2022/01/13 07:38:56;;;;;;;163.40;26.48;;;;;;;4.25;90.58;104160.25;5033052;28;20026;-75
2022/01/13 07:41:21;;;;;;;104.47;21.00;;;;;;;4.30;90.78;104166.59;5039321;28;20107;-72
2022/01/13 07:43:53;;;;;;;116.93;23.83;;;;;;;4.38;90.56;104176.50;5049047;28;20029;-70
2022/01/13 07:46:18;;;;;;;114.82;21.83;;;;;;;4.37;90.41;104174.72;5048665;28;20028;-70
2022/01/13 07:48:44;;;;;;;102.53;21.83;;;;;;;4.35;90.90;104174.66;5049161;28;20017;-68
2022/01/13 07:51:09;;;;;;;115.13;20.92;;;;;;;4.39;90.75;104179.19;5049346;28;20348;-70
2022/01/13 07:53:35;;;;;;;119.25;23.30;;;;;;;4.41;90.42;104180.16;5047976;28;20021;-75
2022/01/13 07:56:00;;;;;;;121.18;22.50;;;;;;;4.46;90.42;104188.22;5047930;28;20017;-73
2022/01/13 07:58:25;;;;;;;101.43;21.60;;;;;;;4.49;90.16;104185.72;5048444;28;20044;-72
2022/01/13 08:00:51;;;;;;;122.20;23.42;;;;;;;4.46;90.15;104189.91;5048241;28;20024;-70
2022/01/13 08:03:16;;;;;;;81.80;17.25;;;;;;;4.48;89.84;104189.16;5048978;28;20387;-67
2022/01/13 08:05:41;;;;;;;91.97;17.55;;;;;;;4.47;90.25;104190.00;5048085;28;20107;-70
2022/01/13 08:08:07;;;;;;;79.07;17.27;;;;;;;4.51;90.27;104188.41;5043521;28;20017;-70
2022/01/13 08:10:32;;;;;;;113.57;19.90;;;;;;;4.53;90.33;104187.66;5038943;28;20036;-65
2022/01/13 08:12:57;;;;;;;72.60;16.70;;;;;;;4.54;90.33;104186.84;5028144;28;20018;-61
2022/01/13 08:15:23;;;;;;;83.93;16.23;;;;;;;4.57;90.26;104188.69;5041945;28;20025;-66
2022/01/13 08:20:33;;;;;;;155.32;22.10;;;;;;;4.51;90.43;104185.78;5049020;28;20107;-66
2022/01/13 08:22:59;;;;;;;93.85;19.52;;;;;;;4.49;90.69;104190.06;5047331;28;20044;-67
2022/01/13 08:25:25;;;;;;;87.57;17.60;;;;;;;4.60;90.49;104187.94;5047109;28;20056;-66
2022/01/13 08:27:51;;;;;;;89.10;18.50;;;;;;;4.63;90.42;104188.97;5067240;28;20024;-62
2022/01/13 08:30:16;;;;;;;63.47;15.75;;;;;;;4.63;90.22;104186.34;5067136;28;20548;-63
2022/01/13 08:32:42;;;;;;;68.05;16.27;;;;;;;4.63;90.27;104191.56;5067621;28;20048;-66
2022/01/13 08:35:08;;;;;;;93.20;19.83;;;;;;;4.63;90.55;104190.66;5053071;28;20025;-61
2022/01/13 08:37:34;;;;;;;66.65;15.88;;;;;;;4.69;90.23;104190.97;5047178;28;20084;-64
2022/01/13 08:40:00;;;;;;;82.43;16.73;;;;;;;4.70;90.01;104202.31;5057763;28;20377;-65
2022/01/13 08:42:26;;;;;;;80.00;16.90;;;;;;;4.69;90.18;104198.78;5067330;28;20019;-64
2022/01/13 08:44:52;;;;;;;85.80;17.52;;;;;;;4.69;89.98;104206.63;5056786;28;20025;-66
2022/01/13 08:47:17;;;;;;;92.80;17.67;;;;;;;4.65;90.02;104204.72;5047284;28;20021;-68
2022/01/13 08:49:42;;;;;;;84.25;17.35;;;;;;;4.66;90.31;104201.25;5047228;28;20118;-66
2022/01/13 08:52:08;;;;;;;96.55;18.50;;;;;;;4.69;90.10;104209.25;5048225;28;20047;-68
2022/01/13 08:54:33;;;;;;;82.20;17.13;;;;;;;4.75;89.98;104206.00;5044101;28;20235;-67
2022/01/13 08:57:00;;;;;;;69.00;15.80;;;;;;;4.76;89.78;104203.47;5046826;28;20158;-66
2022/01/13 08:59:26;;;;;;;66.45;17.45;;;;;;;4.72;89.94;104213.75;5045866;28;20150;-65
2022/01/13 09:01:52;;;;;;;75.97;16.35;;;;;;;4.74;89.66;104212.06;5028603;28;20111;-66
2022/01/13 09:04:17;;;;;;;71.43;15.52;;;;;;;4.77;89.60;104205.28;5047443;28;20036;-67
2022/01/13 09:06:42;;;;;;;65.97;16.27;;;;;;;4.74;89.57;104212.06;5046567;28;20399;-67
2022/01/13 09:09:08;;;;;;;72.40;16.58;;;;;;;4.76;89.55;104218.28;5044977;28;20438;-67
2022/01/13 09:11:33;;;;;;;69.43;15.38;;;;;;;4.75;89.68;104216.47;5045288;28;20479;-65
2022/01/13 09:13:59;;;;;;;65.75;14.90;;;;;;;4.76;89.32;104219.16;5046472;28;20035;-67
2022/01/13 09:16:27;;;;;;;76.13;14.75;;;;;;;4.77;89.19;104205.28;5046051;28;20564;-66
2022/01/13 09:21:28;;;;;;;72.03;15.27;;;;;;;4.78;89.12;104201.81;5045790;28;20037;-65
2022/01/13 09:23:54;;;;;;;61.83;15.40;;;;;;;4.83;88.93;104209.88;5046786;28;20029;-67
2022/01/13 09:26:19;;;;;;;65.18;16.60;;;;;;;4.84;88.81;104205.56;5045584;28;20029;-66
2022/01/13 09:28:45;;;;;;;75.93;16.05;;;;;;;4.85;89.03;104202.97;5044928;28;20025;-65
2022/01/13 09:31:10;;;;;;;68.30;15.20;;;;;;;4.89;88.94;104204.03;5045298;28;20033;-66
2022/01/13 09:33:36;;;;;;;71.80;15.52;;;;;;;4.90;88.88;104201.47;5028062;28;20017;-64
2022/01/13 09:36:03;;;;;;;66.45;13.52;;;;;;;4.94;88.81;104197.28;5027332;28;20048;-66
2022/01/13 09:38:28;;;;;;;69.07;15.55;;;;;;;5.00;88.44;104192.31;5043331;28;20028;-67
2022/01/13 09:40:54;;;;;;;61.00;14.63;;;;;;;5.02;88.74;104195.00;5045040;28;20017;-67
2022/01/13 09:43:26;;;;;;;54.97;14.48;;;;;;;4.99;88.78;104201.00;5044328;28;20033;-66
2022/01/13 09:45:52;;;;;;;50.38;13.40;;;;;;;5.10;88.59;104204.09;5045517;28;20021;-67
2022/01/13 09:48:18;;;;;;;55.67;16.05;;;;;;;5.14;88.10;104202.47;5044462;28;20589;-69
2022/01/13 09:50:46;;;;;;;79.57;18.45;;;;;;;5.05;88.15;104209.09;5045426;28;20116;-67
2022/01/13 09:53:12;;;;;;;56.83;16.27;;;;;;;5.12;88.40;104209.38;5044568;28;20055;-65
2022/01/13 09:55:38;;;;;;;54.17;14.60;;;;;;;5.09;88.31;104207.50;5045731;28;20100;-66
2022/01/13 09:58:10;;;;;;;65.35;16.33;;;;;;;5.14;88.62;104206.00;5042119;28;20032;-66
2022/01/13 10:00:39;;;;;;;68.45;16.98;;;;;;;5.15;88.43;104210.38;5033546;28;20024;-67
2022/01/13 10:03:16;;;;;;;50.67;15.25;;;;;;;5.26;88.04;104207.34;5031198;28;20044;-66
2022/01/13 10:05:50;;;;;;;56.00;14.45;;;;;;;5.26;88.17;104205.63;5030664;28;20084;-65
2022/01/13 10:08:15;;;;;;;74.70;18.42;;;;;;;5.35;88.09;104206.84;5029213;28;20021;-65
2022/01/13 10:10:41;;;;;;;67.43;16.80;;;;;;;5.42;87.58;104196.69;5028117;28;20025;-66
2022/01/13 10:13:10;;;;;;;45.22;13.23;;;;;;;5.46;87.84;104199.44;5039063;28;20368;-66
2022/01/13 10:18:45;;;;;;;49.63;15.23;;;;;;;5.50;87.66;104191.81;5023524;28;20113;-65
2022/01/13 10:21:16;;;;;;;59.80;17.08;;;;;;;5.60;87.66;104189.56;5028732;28;20024;-64
2022/01/13 10:24:03;;;;;;;46.10;15.48;;;;;;;5.71;87.43;104193.50;5011936;28;20024;-66
2022/01/13 10:26:30;;;;;;;50.72;16.45;;;;;;;5.79;86.80;104192.13;5019054;28;20052;-73
2022/01/13 10:28:55;;;;;;;47.20;15.68;;;;;;;5.68;87.23;104190.75;5017558;28;20116;-69
2022/01/13 10:31:21;;;;;;;63.17;18.60;;;;;;;5.74;87.29;104193.63;5018731;28;20540;-66
2022/01/13 10:33:46;;;;;;;57.90;19.02;;;;;;;5.73;87.59;104198.81;5026048;28;20122;-69
2022/01/13 10:36:13;;;;;;;56.63;17.85;;;;;;;5.85;87.22;104201.94;5042654;28;20041;-68
2022/01/13 10:39:05;;;;;;;59.95;18.88;;;;;;;5.87;86.69;104199.38;5045004;28;20036;-68
2022/01/13 10:41:48;;;;;;;52.70;16.52;;;;;;;5.88;86.84;104206.38;5040128;28;20037;-69
2022/01/13 10:44:21;;;;;;;50.60;17.10;;;;;;;5.87;86.57;104191.53;5045314;28;20033;-66
2022/01/13 10:47:03;;;;;;;51.20;17.95;;;;;;;5.87;86.84;104195.03;5042916;28;20279;-68
2022/01/13 10:49:38;;;;;;;57.55;18.75;;;;;;;6.01;86.46;104197.28;5041988;28;20045;-69
2022/01/13 10:52:25;;;;;;;46.67;17.27;;;;;;;6.06;86.06;104199.28;5043947;28;20025;-70
2022/01/13 10:55:03;;;;;;;59.40;20.23;;;;;;;5.97;86.10;104198.91;5039474;28;20033;-66
2022/01/13 10:57:29;;;;;;;53.40;19.10;;;;;;;5.93;86.42;104195.28;5044634;28;20044;-66
2022/01/13 10:59:55;;;;;;;60.13;23.17;;;;;;;5.77;86.89;104198.09;5046079;28;20360;-65
2022/01/13 11:02:21;;;;;;;61.80;19.92;;;;;;;5.93;86.88;104187.41;5044210;28;20036;-65
2022/01/13 11:04:47;;;;;;;69.03;22.65;;;;;;;6.00;86.72;104191.19;5045419;28;20041;-65
2022/01/13 11:07:17;;;;;;;71.95;23.17;;;;;;;6.04;86.27;104182.66;5044739;28;20032;-66
2022/01/13 11:09:43;;;;;;;;;;;;;;;5.92;86.70;104187.34;5028558;28;20420;-65
2022/01/13 11:12:13;;;;;;;61.45;21.70;;;;;;;6.06;86.33;104186.19;5026124;28;19963;-65
2022/01/13 11:14:47;;;;;;;55.63;20.92;;;;;;;6.01;86.17;104185.09;5042734;28;20519;-66
2022/01/13 11:17:12;;;;;;;52.53;18.77;;;;;;;6.03;86.05;104185.16;5043087;28;20139;-65
2022/01/13 11:19:44;;;;;;;67.10;23.77;;;;;;;6.00;85.92;104185.94;5044465;28;20100;-64
2022/01/13 11:22:11;;;;;;;65.93;21.23;;;;;;;6.01;86.14;104176.34;5043389;28;20025;-66
2022/01/13 11:24:37;;;;;;;51.95;20.58;;;;;;;6.00;86.23;104175.47;5044552;28;20021;-66
2022/01/13 11:27:04;;;;;;;56.38;20.60;;;;;;;6.04;86.08;104179.13;5043248;28;20020;-69
2022/01/13 11:29:29;;;;;;;58.83;21.50;;;;;;;5.99;86.28;104173.66;5027042;28;20028;-69
2022/01/13 11:31:56;;;;;;;61.33;21.90;;;;;;;6.04;85.94;104172.16;5043909;28;20024;-63
2022/01/13 11:34:21;;;;;;;42.75;18.60;;;;;;;6.11;85.77;104161.94;5025474;28;20033;-69
2022/01/13 11:36:47;;;;;;;53.55;21.27;;;;;;;6.15;85.77;104169.97;5007414;28;20541;-72
2022/01/13 11:39:12;;;;;;;52.45;20.02;;;;;;;6.13;85.74;104169.00;5038926;28;20021;-71